createdAt,value
2023-01-12T00:01:12.013Z,5.90
2023-01-12T00:03:40.041Z,5.80
2023-01-12T00:06:12.745Z,5.80
2023-01-12T00:08:42.164Z,5.80
2023-01-12T00:11:10.087Z,5.80
2023-01-12T00:13:38.102Z,5.80
2023-01-12T00:16:26.097Z,5.70
2023-01-12T00:18:54.125Z,5.70
2023-01-12T00:21:22.069Z,5.60
2023-01-12T00:23:51.445Z,5.50
2023-01-12T00:26:19.383Z,5.50
2023-01-12T00:28:47.423Z,5.50
2023-01-12T00:31:15.453Z,5.50
2023-01-12T00:33:43.457Z,5.50
2023-01-12T00:36:14.300Z,5.50
2023-01-12T00:38:42.613Z,5.40
2023-01-12T00:41:34.784Z,5.40
2023-01-12T00:44:20.449Z,5.40
2023-01-12T00:46:48.497Z,5.40
2023-01-12T00:49:16.702Z,5.40
2023-01-12T00:51:44.606Z,5.40
2023-01-12T00:54:12.582Z,5.30
2023-01-12T00:56:41.841Z,5.30
2023-01-12T00:59:09.790Z,5.20
2023-01-12T01:01:37.873Z,5.20
2023-01-12T01:04:06.265Z,5.20
2023-01-12T01:06:34.171Z,5.30
2023-01-12T01:09:02.149Z,5.30
2023-01-12T01:11:30.175Z,5.30
2023-01-12T01:14:00.167Z,5.30
2023-01-12T01:16:28.219Z,5.20
2023-01-12T01:18:56.205Z,5.20
2023-01-12T01:21:24.271Z,5.20
2023-01-12T01:23:52.801Z,5.20
2023-01-12T01:26:22.892Z,5.10
2023-01-12T01:28:51.950Z,5.20
2023-01-12T01:31:23.698Z,5.10
2023-01-12T01:33:52.314Z,5.10
2023-01-12T01:36:21.577Z,5.20
2023-01-12T01:38:50.512Z,5.20
2023-01-12T01:41:22.295Z,5.20
2023-01-12T01:43:56.979Z,5.20
2023-01-12T01:46:46.132Z,5.10
2023-01-12T01:49:25.163Z,5.20
2023-01-12T01:51:56.742Z,5.20
2023-01-12T01:54:24.975Z,5.10
2023-01-12T01:57:13.838Z,5.10
2023-01-12T02:00:04.187Z,5.00
2023-01-12T02:02:35.660Z,5.00
2023-01-12T02:05:03.968Z,5.00
2023-01-12T02:07:32.359Z,5.00
2023-01-12T02:10:00.331Z,5.00
2023-01-12T02:12:45.677Z,5.00
2023-01-12T02:15:30.981Z,4.90
2023-01-12T02:18:11.536Z,5.00
2023-01-12T02:20:50.671Z,4.90
2023-01-12T02:23:59.631Z,4.90
2023-01-12T02:27:15.638Z,4.90
2023-01-12T02:30:17.128Z,4.90
2023-01-12T02:32:55.308Z,5.00
2023-01-12T02:35:29.132Z,5.00
2023-01-12T02:38:04.321Z,5.20
2023-01-12T02:40:37.779Z,5.30
2023-01-12T02:43:09.124Z,5.40
2023-01-12T02:45:42.921Z,5.60
2023-01-12T02:48:16.934Z,5.60
2023-01-12T02:50:51.053Z,5.60
2023-01-12T02:53:25.080Z,5.50
2023-01-12T02:55:54.176Z,5.50
2023-01-12T02:58:26.441Z,5.30
2023-01-12T03:00:57.270Z,5.10
2023-01-12T03:03:27.473Z,5.00
2023-01-12T03:05:57.291Z,5.00
2023-01-12T03:08:28.940Z,5.00
2023-01-12T03:11:08.255Z,4.90
2023-01-12T03:13:40.061Z,4.90
2023-01-12T03:16:11.913Z,4.90
2023-01-12T03:18:46.137Z,5.00
2023-01-12T03:21:19.660Z,5.00
2023-01-12T03:23:50.488Z,5.00
2023-01-12T03:26:23.165Z,4.90
2023-01-12T03:28:52.889Z,4.90
2023-01-12T03:31:22.955Z,4.90
2023-01-12T03:33:52.532Z,4.90
2023-01-12T03:36:28.688Z,4.80
2023-01-12T03:39:04.528Z,4.90
2023-01-12T03:41:41.429Z,4.90
2023-01-12T03:44:18.643Z,4.90
2023-01-12T03:46:55.620Z,4.80
2023-01-12T03:49:31.070Z,4.90
2023-01-12T03:52:00.875Z,4.90
2023-01-12T03:54:30.599Z,4.90
2023-01-12T03:57:00.588Z,4.80
2023-01-12T03:59:29.309Z,4.80
2023-01-12T04:01:57.372Z,4.80
2023-01-12T04:04:26.826Z,4.80
2023-01-12T04:06:54.811Z,4.80
2023-01-12T04:09:25.340Z,4.70
2023-01-12T04:12:12.069Z,4.80
2023-01-12T04:14:41.611Z,4.70
2023-01-12T04:17:11.323Z,4.70
2023-01-12T04:19:40.732Z,4.70
2023-01-12T04:22:27.088Z,4.70
2023-01-12T04:24:55.076Z,4.70
2023-01-12T04:27:23.074Z,4.70
2023-01-12T04:29:51.016Z,4.70
2023-01-12T04:32:19.079Z,4.70
2023-01-12T04:34:48.604Z,4.60
2023-01-12T04:37:16.795Z,4.70
2023-01-12T04:39:44.887Z,4.70
2023-01-12T04:42:26.800Z,4.70
2023-01-12T04:44:54.685Z,4.70
2023-01-12T04:47:22.559Z,4.70
2023-01-12T04:49:51.840Z,4.60
2023-01-12T04:52:19.783Z,4.70
2023-01-12T04:54:47.694Z,4.70
2023-01-12T04:57:15.722Z,4.60
2023-01-12T04:59:43.678Z,4.70
2023-01-12T05:02:11.738Z,4.70
2023-01-12T05:04:39.737Z,4.70
2023-01-12T05:07:09.155Z,4.70
2023-01-12T05:09:53.579Z,4.70
2023-01-12T05:12:21.563Z,4.60
2023-01-12T05:14:50.804Z,4.60
2023-01-12T05:17:18.880Z,4.60
2023-01-12T05:19:48.402Z,4.70
2023-01-12T05:22:17.795Z,4.60
2023-01-12T05:24:45.719Z,4.70
2023-01-12T05:27:13.698Z,4.80
2023-01-12T05:29:41.708Z,4.70
2023-01-12T05:32:09.646Z,4.80
2023-01-12T05:34:37.736Z,4.70
2023-01-12T05:37:06.035Z,4.70
2023-01-12T05:39:35.473Z,4.80
2023-01-12T05:42:20.716Z,4.80
2023-01-12T05:44:48.893Z,4.80
2023-01-12T05:47:17.081Z,4.90
2023-01-12T05:49:45.283Z,4.90
2023-01-12T05:52:13.320Z,4.90
2023-01-12T05:54:42.816Z,4.90
2023-01-12T05:57:10.818Z,4.90
2023-01-12T05:59:38.816Z,4.90
2023-01-12T06:02:06.781Z,4.80
2023-01-12T06:04:34.857Z,4.80
2023-01-12T06:07:02.869Z,4.80
2023-01-12T06:09:30.888Z,4.70
2023-01-12T06:12:17.911Z,4.70
2023-01-12T06:14:45.782Z,4.70
2023-01-12T06:17:13.688Z,4.60
2023-01-12T06:19:41.646Z,4.70
2023-01-12T06:22:09.825Z,4.60
2023-01-12T06:24:37.909Z,4.70
2023-01-12T06:27:07.336Z,4.60
2023-01-12T06:29:35.283Z,4.60
2023-01-12T06:32:03.249Z,4.60
2023-01-12T06:34:34.782Z,4.60
2023-01-12T06:37:03.029Z,4.60
2023-01-12T06:39:31.084Z,4.60
2023-01-12T06:42:16.506Z,4.60
2023-01-12T06:44:47.645Z,4.60
2023-01-12T06:47:16.687Z,4.60
2023-01-12T06:49:44.697Z,4.60
2023-01-12T06:52:12.715Z,4.60
2023-01-12T06:54:40.719Z,4.60
2023-01-12T06:57:08.733Z,4.60
2023-01-12T06:59:38.912Z,4.60
2023-01-12T07:02:10.663Z,4.60
2023-01-12T07:04:38.876Z,4.60
2023-01-12T07:07:07.047Z,4.60
2023-01-12T07:09:35.814Z,4.60
2023-01-12T07:12:04.263Z,4.60
2023-01-12T07:14:32.250Z,4.60
2023-01-12T07:17:00.292Z,4.60
2023-01-12T07:19:29.818Z,4.60
2023-01-12T07:21:57.731Z,4.70
2023-01-12T07:24:25.969Z,4.70
2023-01-12T07:26:53.934Z,4.70
2023-01-12T07:29:22.034Z,4.70
2023-01-12T07:31:50.155Z,4.80
2023-01-12T07:34:18.486Z,4.80
2023-01-12T07:36:49.813Z,4.80
2023-01-12T07:39:17.910Z,4.80
2023-01-12T07:42:03.314Z,4.80
2023-01-12T07:44:31.278Z,4.80
2023-01-12T07:46:59.562Z,4.90
2023-01-12T07:49:27.982Z,4.80
2023-01-12T07:51:57.534Z,4.90
2023-01-12T07:54:25.879Z,4.90
2023-01-12T07:56:54.001Z,4.90
2023-01-12T07:59:22.091Z,5.00
2023-01-12T08:01:52.001Z,5.00
2023-01-12T08:04:21.643Z,5.00
2023-01-12T08:06:49.651Z,5.00
2023-01-12T08:09:19.026Z,5.10
2023-01-12T08:11:46.977Z,5.10
2023-01-12T08:14:28.691Z,5.10
2023-01-12T08:17:01.567Z,5.10
2023-01-12T08:19:37.122Z,5.20
2023-01-12T08:22:08.714Z,5.20
2023-01-12T08:24:44.556Z,5.20
2023-01-12T08:27:12.819Z,5.20
2023-01-12T08:29:44.283Z,5.30
2023-01-12T08:32:14.135Z,5.40
2023-01-12T08:34:44.813Z,5.40
2023-01-12T08:37:16.696Z,5.50
2023-01-12T08:39:48.435Z,5.50
2023-01-12T08:42:16.497Z,5.60
2023-01-12T08:44:45.359Z,5.70
2023-01-12T08:47:18.489Z,5.70
2023-01-12T08:49:47.289Z,5.70
2023-01-12T08:52:17.216Z,5.70
2023-01-12T08:54:45.287Z,5.70
2023-01-12T08:57:16.242Z,5.70
2023-01-12T08:59:44.376Z,5.80
2023-01-12T09:02:13.074Z,5.80
2023-01-12T09:04:41.316Z,5.90
2023-01-12T09:07:10.067Z,5.90
2023-01-12T09:09:38.326Z,6.00
2023-01-12T09:12:06.798Z,6.10
2023-01-12T09:14:38.875Z,6.20
2023-01-12T09:17:07.096Z,6.20
2023-01-12T09:19:35.212Z,6.30
2023-01-12T09:22:03.173Z,6.30
2023-01-12T09:24:31.278Z,6.30
2023-01-12T09:26:59.924Z,6.30
2023-01-12T09:29:28.022Z,6.30
2023-01-12T09:31:57.632Z,6.30
2023-01-12T09:34:25.807Z,6.30
2023-01-12T09:36:56.129Z,6.30
2023-01-12T09:39:28.365Z,6.40
2023-01-12T09:42:15.163Z,6.40
2023-01-12T09:45:02.981Z,6.40
2023-01-12T09:47:56.423Z,6.40
2023-01-12T09:50:28.388Z,6.40
2023-01-12T09:53:01.031Z,6.40
2023-01-12T09:55:32.562Z,6.40
2023-01-12T09:58:14.786Z,6.40
2023-01-12T10:00:42.769Z,6.50
2023-01-12T10:03:21.518Z,6.40
2023-01-12T10:05:52.400Z,6.50
2023-01-12T10:08:29.595Z,6.50
2023-01-12T10:11:09.658Z,6.50
2023-01-12T10:13:54.678Z,6.50
2023-01-12T10:16:31.484Z,6.60
2023-01-12T10:19:08.829Z,6.60
2023-01-12T10:21:37.371Z,6.60
2023-01-12T10:24:12.708Z,6.60
2023-01-12T10:26:43.601Z,6.70
2023-01-12T10:29:13.050Z,6.60
2023-01-12T10:31:41.173Z,6.70
2023-01-12T10:34:12.313Z,6.70
2023-01-12T10:36:44.643Z,6.70
2023-01-12T10:39:31.010Z,6.70
2023-01-12T10:42:36.783Z,6.70
2023-01-12T10:45:17.272Z,6.80
2023-01-12T10:47:46.846Z,6.80
2023-01-12T10:50:25.489Z,6.80
2023-01-12T10:52:58.403Z,6.80
2023-01-12T10:55:31.725Z,6.90
2023-01-12T10:58:00.490Z,6.90
2023-01-12T11:00:29.875Z,6.90
2023-01-12T11:02:58.111Z,6.80
2023-01-12T11:05:35.505Z,6.80
2023-01-12T11:08:04.991Z,6.80
2023-01-12T11:10:35.740Z,6.90
2023-01-12T11:13:06.001Z,6.90
2023-01-12T11:15:38.996Z,7.00
2023-01-12T11:18:27.074Z,7.00
2023-01-12T11:21:02.473Z,7.00
2023-01-12T11:23:38.344Z,6.90
2023-01-12T11:26:16.668Z,7.00
2023-01-12T11:28:47.379Z,6.90
2023-01-12T11:31:19.662Z,6.90
2023-01-12T11:33:50.663Z,6.90
2023-01-12T11:36:25.990Z,6.90
2023-01-12T11:39:00.937Z,6.90
2023-01-12T11:41:34.382Z,6.80
2023-01-12T11:44:09.215Z,6.80
2023-01-12T11:46:43.179Z,6.80
2023-01-12T11:49:15.836Z,6.80
2023-01-12T11:51:45.116Z,6.80
2023-01-12T11:54:16.858Z,6.80
2023-01-12T11:57:17.610Z,6.80
2023-01-12T11:59:53.595Z,6.80
2023-01-12T12:02:34.903Z,6.70
2023-01-12T12:05:14.334Z,6.80
2023-01-12T12:07:59.519Z,6.80
2023-01-12T12:10:36.270Z,6.70
2023-01-12T12:13:22.170Z,6.70
2023-01-12T12:15:59.062Z,6.70
2023-01-12T12:18:40.399Z,6.70
2023-01-12T12:21:21.919Z,6.70
2023-01-12T12:24:01.207Z,6.70
2023-01-12T12:26:34.137Z,6.70
2023-01-12T12:29:14.396Z,6.70
2023-01-12T12:31:56.808Z,6.80
2023-01-12T12:34:49.312Z,6.80
2023-01-12T12:37:24.736Z,6.80
2023-01-12T12:40:07.268Z,6.70
2023-01-12T12:43:03.898Z,6.70
2023-01-12T12:45:42.032Z,6.70
2023-01-12T12:48:16.298Z,6.70
2023-01-12T12:50:51.076Z,6.70
2023-01-12T12:53:25.293Z,6.70
2023-01-12T12:55:57.439Z,6.70
2023-01-12T12:58:43.681Z,6.80
2023-01-12T13:01:57.646Z,6.80
2023-01-12T13:05:02.024Z,6.90
2023-01-12T13:07:35.270Z,7.00
2023-01-12T13:10:20.260Z,7.10
2023-01-12T13:13:02.187Z,7.30
2023-01-12T13:15:36.748Z,7.50
2023-01-12T13:18:07.055Z,7.60
2023-01-12T13:20:52.419Z,7.60
2023-01-12T13:23:57.232Z,7.70
2023-01-12T13:26:41.025Z,7.60
2023-01-12T13:29:42.447Z,7.60
2023-01-12T13:32:42.753Z,7.50
2023-01-12T13:35:46.249Z,7.40
2023-01-12T13:38:22.065Z,7.30
2023-01-12T13:40:55.926Z,7.30
2023-01-12T13:43:32.108Z,7.20
2023-01-12T13:46:05.172Z,7.10
2023-01-12T13:48:36.535Z,7.10
2023-01-12T13:51:08.447Z,7.10
2023-01-12T13:53:36.411Z,7.10
2023-01-12T13:56:06.598Z,7.00
2023-01-12T13:58:41.760Z,6.90
2023-01-12T14:01:19.143Z,6.90
2023-01-12T14:04:02.219Z,6.90
2023-01-12T14:06:41.121Z,6.90
2023-01-12T14:09:22.026Z,6.80
2023-01-12T14:12:19.532Z,6.80
2023-01-12T14:15:23.349Z,6.80
2023-01-12T14:17:57.553Z,6.70
2023-01-12T14:20:27.613Z,6.70
2023-01-12T14:23:31.140Z,6.70
2023-01-12T14:26:25.508Z,6.70
2023-01-12T14:29:07.066Z,6.70
2023-01-12T14:31:49.322Z,6.60
2023-01-12T14:34:39.218Z,6.60
2023-01-12T14:37:20.866Z,6.60
2023-01-12T14:39:49.259Z,6.60
2023-01-12T14:42:39.171Z,6.60
2023-01-12T14:45:48.496Z,6.70
2023-01-12T14:48:29.683Z,6.60
2023-01-12T14:51:06.614Z,6.70
2023-01-12T14:53:39.584Z,6.70
2023-01-12T14:56:19.567Z,6.60
2023-01-12T14:58:48.800Z,6.60
2023-01-12T15:01:32.729Z,6.60
2023-01-12T15:04:01.184Z,6.50
2023-01-12T15:06:30.736Z,6.60
2023-01-12T15:09:01.451Z,6.60
2023-01-12T15:11:31.936Z,6.60
2023-01-12T15:14:01.065Z,6.50
2023-01-12T15:16:46.709Z,6.50
2023-01-12T15:19:31.870Z,6.50
2023-01-12T15:22:19.095Z,6.50
2023-01-12T15:25:04.353Z,6.50
2023-01-12T15:27:32.503Z,6.50
2023-01-12T15:30:00.488Z,6.50
2023-01-12T15:32:46.297Z,6.40
2023-01-12T15:35:17.858Z,6.50
2023-01-12T15:37:47.296Z,6.40
2023-01-12T15:40:15.925Z,6.40
2023-01-12T15:42:43.994Z,6.40
2023-01-12T15:45:19.743Z,6.30
2023-01-12T15:47:48.412Z,6.30
2023-01-12T15:50:16.855Z,6.30
2023-01-12T15:52:44.820Z,6.30
2023-01-12T15:55:18.251Z,6.30
2023-01-12T15:57:47.148Z,6.30
2023-01-12T16:00:17.465Z,6.30
2023-01-12T16:02:47.794Z,6.30
2023-01-12T16:05:17.049Z,6.30
2023-01-12T16:07:48.512Z,6.30
2023-01-12T16:10:19.873Z,6.30
2023-01-12T16:12:48.804Z,6.30
2023-01-12T16:15:18.767Z,6.30
2023-01-12T16:17:46.869Z,6.30
2023-01-12T16:20:16.929Z,6.50
2023-01-12T16:22:46.566Z,6.70
2023-01-12T16:25:14.958Z,6.80
2023-01-12T16:27:44.504Z,6.90
2023-01-12T16:30:15.590Z,7.00
2023-01-12T16:32:46.641Z,7.00
2023-01-12T16:35:16.033Z,7.00
2023-01-12T16:37:44.504Z,7.10
2023-01-12T16:40:13.630Z,7.20
2023-01-12T16:42:41.651Z,7.20
2023-01-12T16:45:11.749Z,7.20
2023-01-12T16:47:39.775Z,7.20
2023-01-12T16:50:08.528Z,7.20
2023-01-12T16:52:36.487Z,7.20
2023-01-12T16:55:05.625Z,7.10
2023-01-12T16:57:34.577Z,7.10
2023-01-12T17:00:02.538Z,7.10
2023-01-12T17:02:32.306Z,7.10
2023-01-12T17:05:00.807Z,7.10
2023-01-12T17:07:29.557Z,7.10
2023-01-12T17:09:59.115Z,7.10
2023-01-12T17:12:27.420Z,7.10
2023-01-12T17:14:55.504Z,7.10
2023-01-12T17:17:23.566Z,7.10
2023-01-12T17:19:53.496Z,7.10
2023-01-12T17:22:23.761Z,7.10
2023-01-12T17:24:52.017Z,7.10
2023-01-12T17:27:20.393Z,7.10
2023-01-12T17:29:49.144Z,7.10
2023-01-12T17:32:17.728Z,7.00
2023-01-12T17:34:47.923Z,7.00
2023-01-12T17:37:17.513Z,7.10
2023-01-12T17:39:46.033Z,7.10
2023-01-12T17:42:33.567Z,7.10
2023-01-12T17:45:02.315Z,7.10
2023-01-12T17:47:30.460Z,7.00
2023-01-12T17:49:58.720Z,7.00
2023-01-12T17:52:28.299Z,7.00
2023-01-12T17:54:56.377Z,7.00
2023-01-12T17:57:24.351Z,7.00
2023-01-12T17:59:52.406Z,7.00
2023-01-12T18:02:20.559Z,6.90
2023-01-12T18:04:48.599Z,7.00
2023-01-12T18:07:16.577Z,7.00
2023-01-12T18:09:45.892Z,7.00
2023-01-12T18:12:15.908Z,7.00
2023-01-12T18:14:44.049Z,7.00
2023-01-12T18:17:12.649Z,6.90
2023-01-12T18:19:42.328Z,6.90
2023-01-12T18:22:10.975Z,6.90
2023-01-12T18:24:39.009Z,6.90
2023-01-12T18:27:08.736Z,6.90
2023-01-12T18:29:36.775Z,6.90
2023-01-12T18:32:04.894Z,6.90
2023-01-12T18:34:36.483Z,6.90
2023-01-12T18:37:04.534Z,6.90
2023-01-12T18:39:32.608Z,6.80
2023-01-12T18:42:17.826Z,6.80
2023-01-12T18:44:48.235Z,6.80
2023-01-12T18:47:33.977Z,6.80
2023-01-12T18:50:22.755Z,6.80
2023-01-12T18:53:08.143Z,6.80
2023-01-12T18:55:37.815Z,6.80
2023-01-12T18:58:05.811Z,6.80
2023-01-12T19:00:35.365Z,6.80
2023-01-12T19:03:05.087Z,6.80
2023-01-12T19:05:42.575Z,6.80
2023-01-12T19:08:27.975Z,6.80
2023-01-12T19:10:56.398Z,6.80
2023-01-12T19:13:40.844Z,6.80
2023-01-12T19:16:32.072Z,6.80
2023-01-12T19:19:00.052Z,6.80
2023-01-12T19:21:45.266Z,6.80
2023-01-12T19:24:30.465Z,6.70
2023-01-12T19:27:15.768Z,6.70
2023-01-12T19:29:44.901Z,6.70
2023-01-12T19:32:14.571Z,6.70
2023-01-12T19:34:42.581Z,6.70
2023-01-12T19:37:10.821Z,6.70
2023-01-12T19:39:59.555Z,6.60
2023-01-12T19:42:46.552Z,6.60
2023-01-12T19:45:15.022Z,6.60
2023-01-12T19:47:44.373Z,6.60
2023-01-12T19:50:14.772Z,6.60
2023-01-12T19:52:44.164Z,6.60
2023-01-12T19:55:14.397Z,6.50
2023-01-12T19:57:43.008Z,6.50
2023-01-12T20:00:14.995Z,6.50
2023-01-12T20:02:44.784Z,6.50
2023-01-12T20:05:17.173Z,6.50
2023-01-12T20:07:45.443Z,6.60
2023-01-12T20:10:13.394Z,6.60
2023-01-12T20:12:41.432Z,6.50
2023-01-12T20:15:10.432Z,6.60
2023-01-12T20:17:38.431Z,6.60
2023-01-12T20:20:09.619Z,6.60
2023-01-12T20:22:37.904Z,6.60
2023-01-12T20:25:07.293Z,6.60
2023-01-12T20:27:36.067Z,6.60
2023-01-12T20:30:05.470Z,6.60
2023-01-12T20:32:38.038Z,6.60
2023-01-12T20:35:08.323Z,6.60
2023-01-12T20:37:36.503Z,6.60
2023-01-12T20:40:04.809Z,6.60
2023-01-12T20:42:32.850Z,6.70
2023-01-12T20:45:01.565Z,6.70
2023-01-12T20:47:32.088Z,6.70
2023-01-12T20:50:00.395Z,6.70
2023-01-12T20:52:29.796Z,6.70
2023-01-12T20:54:57.806Z,6.70
2023-01-12T20:57:25.919Z,6.70
2023-01-12T20:59:54.088Z,6.70
2023-01-12T21:02:24.631Z,6.70
2023-01-12T21:04:52.777Z,6.70
2023-01-12T21:07:21.845Z,6.70
2023-01-12T21:09:51.408Z,6.70
2023-01-12T21:12:19.731Z,6.70
2023-01-12T21:14:47.694Z,6.70
2023-01-12T21:17:16.676Z,6.70
2023-01-12T21:19:44.755Z,6.80
2023-01-12T21:22:13.190Z,6.70
2023-01-12T21:24:41.197Z,6.80
2023-01-12T21:27:11.002Z,6.70
2023-01-12T21:29:39.108Z,6.70
2023-01-12T21:32:07.269Z,6.70
2023-01-12T21:34:35.281Z,6.70
2023-01-12T21:37:03.495Z,6.70
2023-01-12T21:39:31.648Z,6.70
2023-01-12T21:42:16.808Z,6.80
2023-01-12T21:44:46.113Z,6.70
2023-01-12T21:47:14.070Z,6.70
2023-01-12T21:49:42.197Z,6.70
2023-01-12T21:52:10.333Z,6.70
2023-01-12T21:54:38.519Z,6.70
2023-01-12T21:57:06.652Z,6.70
2023-01-12T21:59:34.631Z,6.70
2023-01-12T22:02:04.177Z,6.70
2023-01-12T22:04:33.144Z,6.70
2023-01-12T22:07:01.160Z,6.70
2023-01-12T22:09:29.686Z,6.70
2023-01-12T22:11:57.690Z,6.70
2023-01-12T22:14:25.837Z,6.70
2023-01-12T22:16:53.889Z,6.60
2023-01-12T22:19:23.336Z,6.70
2023-01-12T22:21:51.367Z,6.70
2023-01-12T22:24:19.359Z,6.70
2023-01-12T22:26:47.489Z,6.70
2023-01-12T22:29:15.752Z,6.70
2023-01-12T22:31:43.742Z,6.70
2023-01-12T22:34:12.816Z,6.70
2023-01-12T22:36:43.759Z,6.70
2023-01-12T22:39:12.782Z,6.80
2023-01-12T22:41:41.161Z,6.80
2023-01-12T22:44:09.299Z,6.80
2023-01-12T22:46:38.412Z,6.80
2023-01-12T22:49:07.311Z,6.80
2023-01-12T22:51:35.657Z,6.80
2023-01-12T22:54:05.182Z,6.80
2023-01-12T22:56:33.247Z,6.80
2023-01-12T22:59:01.323Z,6.80
2023-01-12T23:01:29.868Z,6.80
2023-01-12T23:03:59.054Z,6.80
2023-01-12T23:06:29.053Z,6.80
2023-01-12T23:08:57.090Z,6.80
2023-01-12T23:11:27.597Z,6.80
2023-01-12T23:13:56.955Z,6.90
2023-01-12T23:16:25.511Z,6.80
2023-01-12T23:18:55.248Z,6.80
2023-01-12T23:21:25.081Z,6.80
2023-01-12T23:23:54.786Z,6.80
2023-01-12T23:26:25.128Z,6.80
2023-01-12T23:28:56.243Z,6.70
2023-01-12T23:31:26.435Z,6.80
2023-01-12T23:33:54.430Z,6.70
2023-01-12T23:36:25.192Z,6.80
2023-01-12T23:38:54.697Z,6.80
2023-01-12T23:41:25.085Z,6.90
2023-01-12T23:43:56.641Z,6.90
2023-01-12T23:46:25.030Z,6.90
2023-01-12T23:48:54.779Z,6.90
2023-01-12T23:51:23.496Z,6.80
2023-01-12T23:53:53.025Z,6.90
2023-01-12T23:56:22.083Z,6.90
2023-01-12T23:58:50.084Z,6.90
